Aller au contenu


Afficher ou pas le shoutbox Shoutbox

Sabrina : (08 May 2018 - 11:05) :D
serge44 : (07 May 2018 - 22:48) Pareille moi aussi , je suis tanné http://www.tvanouvel...ises-de-la-peur
erol : (07 May 2018 - 12:17) J’étais juste tanné....
erol : (07 May 2018 - 12:16) ... de voir le front....
erol : (07 May 2018 - 12:16) .... de Bourassa. :sorry:
Redimensionner le Shoutbox

Photo

L'autan à perte de vue


  • Please log in to reply
3 réponses à ce sujet

#1 Laurent

Laurent

    Nouveau

  • Membres
  • 365 messages
  • Localité :Maisons-Alfort
  • Prénom :Laurent

Posté 01 November 2015 - 09:31

Bonjour à tous,

 

Il est bien là  :pinch:. Bien établi depuis plusieurs jours. Turbulent ce qui le rend assez désagréable. Et encore je ne suis pas dans le Lauragais ni même en plaine Toulousaine (courage Jean-Louis !).

Ci-dessous une coupe Arome à +39h pour le lundi 2 novembre 2015 à 16h00 locales. Il y a des rafales qui devraient avoisiner les 100 km/h entre l'Aude et la Haute-Garonne  :scared: .

Ensuite, une dorsale devrait bien se positionner en fin de semaine pour que nous puissions encore profiter d'un bel épisode d'été indien.

 

Bonne semaine à tous,

 

Laurent  

 

 

 

 

Miniature(s) jointe(s)

  • Autan.PNG


#2 Jean-Louis

Jean-Louis

    Contributeur

  • Modérateurs
  • PipPip
  • 1 756 messages

Posté 02 November 2015 - 04:29

Bonjour Laurent, bonjour à tous,


Effectivement ça souffle et ça va encore s'amplifier d'ici à ce soir ce qui accentue gravement la sècheresse de ces deux derniers mois de septembre et octobre fortement déficitaires en pluie.
Hier dimanche il fallait voir comment le vent soulevait la terre en chasse poussières aux abords des gravières ou des chantiers de terrassements.

 

Sur la coupe ci-dessous, on voit bien l'atténuation assez nette de l'autan au cours de la nuit prochaine avant un passage frontal depuis le sud nettement plus actif sur les Pyrénées selon AROME.

Je crains que ça ne donne pas grand chose sur le Toulousain... 

 

La suite s'annonce tout aussi "estivale". Les hauts géopotentiels remontent en 2ème partie et  fin de semaine. L'iso 0° s'envole vers les 600 hPa !

 

On sera proche de l'été de la Saint Martin (fêté le11 novembre) nettement plus adapté à notre climatologie que ce fameux été indien utilisé à tort et à travers par les médias.

 

 

Miniature(s) jointe(s)

  • MU_Toulouse_avn.png

Ex prévisionniste en hydrométéorologie sur le bassin de la Garonne.

#3 cpweather

cpweather

    Administrateur

  • Admin
  • PipPip
  • 1 728 messages
  • Localité :Toulouse, France
  • Prénom :Christian
  • Nom :Pagé

Posté 02 November 2015 - 05:11

En effet de bonnes rafales à Toulouse-Blagnac ces derniers 12h, typique de l'autan avec des rafales 20 noeuds de + que le vent moyen en général.

 

LFBO 012200Z AUTO 11020KT CAVOK 15/09 Q1023=
LFBO 012230Z AUTO 11018KT 9999 FEW030 15/09 Q1023=
LFBO 012300Z AUTO 10017G29KT CAVOK 15/09 Q1022=
LFBO 012330Z AUTO 11016G28KT 050V130 CAVOK 16/09 Q1022=
LFBO 020000Z AUTO 12015KT CAVOK 16/09 Q1022=
LFBO 020030Z AUTO 12015KT 070V150 9999 FEW032 15/10 Q1021=
LFBO 020100Z AUTO 12016KT 9999 BKN028 BKN033 15/11 Q1021=
LFBO 020130Z AUTO 11017G32KT 080V140 9999 FEW027 15/10 Q1021=
LFBO 020200Z AUTO 11017G29KT 080V140 CAVOK 15/10 Q1021=
LFBO 020230Z AUTO 11020G31KT CAVOK 16/10 Q1020=
LFBO 020300Z AUTO 11018G28KT 080V140 CAVOK 16/11 Q1020=
LFBO 020330Z AUTO 11017G29KT 080V140 9999 FEW023 15/11 Q1020=
LFBO 020400Z AUTO 11017G28KT 080V140 9999 FEW023 15/10 Q1020=
LFBO 020430Z AUTO 11021G36KT 080V140 CAVOK 15/10 Q1020=
LFBO 020500Z AUTO 11024G40KT 080V140 CAVOK 15/10 Q1020=
LFBO 020530Z AUTO 11022G35KT CAVOK 15/10 Q1020=
LFBO 020600Z AUTO 11022G34KT 9999 FEW011 15/09 Q1020=
LFBO 020630Z AUTO 11022G32KT 080V140 CAVOK 15/10 Q1020=
LFBO 020700Z AUTO 11017G28KT 070V140 CAVOK 15/10 Q1020=
LFBO 020730Z AUTO 11018G34KT 9999 FEW022 15/11 Q1020=
LFBO 020800Z AUTO 12019KT 9999 FEW025 16/10 Q1020=
LFBO 020830Z AUTO 11021G34KT 9999 FEW027 16/09 Q1020=
LFBO 020900Z AUTO 12024G40KT CAVOK 17/09 Q1020=
LFBO 020930Z AUTO 12025G38KT 090V150 9999 FEW010 18/07 Q1019=
LFBO 021000Z AUTO 12026G39KT CAVOK 18/09 Q1019=

 

Christian


Christian Pagé

Météorologiste professionnel


#4 Jean-Louis

Jean-Louis

    Contributeur

  • Modérateurs
  • PipPip
  • 1 756 messages

Posté 03 November 2015 - 03:39

Bonjour à tous,

 

 

L'Autan s'est nettement calmé dans la nuit de lundi à mardi après s'être progressivement déchaîné hier lundi.

 

120 à 130 km/h aux abords de la Montagne Noire et 100 à 115 km/h dans le couloir du Lauragais de Carcassonne à Toulouse avec les dégâts malheureusement classiques pour ce genre d'épisode.

 

Avec les réserves d'usage, nous devrions rester sous une dominante subtropicale de sud ouest avec remontée progressive des hauts géopotentiels sans doute jusqu'au 11 novembre et probablement jusqu'à la mi novembre; le flux Océanique perturbé circulant au nord du 50ème parallèle avec des creusement parfois "musclés".


Ex prévisionniste en hydrométéorologie sur le bassin de la Garonne.




0 utilisateur(s) li(sen)t ce sujet

0 membre(s), 0 invité(s), 0 utilisateur(s) anonyme(s)